Terminal Aerodrome Forecast
Issued by NWS

Home | Current Version | Previous Version | Text Only | Print | Product List | Glossary On
Versions: 1 2 3 4 5 6 7 8 9 10 11 12 13 14 15 16 17 18 19 20 21 22 23 24 25
939
FTUS41 KAKQ 220213 AAB
TAFPHF
TAF AMD
KPHF 220213Z 2202/2224 08004KT 4SM -RA BR OVC008
      TEMPO 2202/2204 OVC012
     FM220400 VRB03KT 2SM RA BR OVC005
     FM220700 06005KT 1SM -SHRA BR OVC002
     FM220900 01004KT 1/2SM FG OVC002
     FM221500 08004KT 1 1/2SM -SHRA OVC003=

USA.gov is the U.S. government's official web portal to all federal, state and local government web resources and services.